createdAt,value
2023-02-11T00:00:45.569Z,77.82
2023-02-11T00:03:13.040Z,77.51
2023-02-11T00:05:40.220Z,77.42
2023-02-11T00:08:07.416Z,76.98
2023-02-11T00:10:34.807Z,76.75
2023-02-11T00:13:01.990Z,76.01
2023-02-11T00:15:29.160Z,76.46
2023-02-11T00:17:56.575Z,76.51
2023-02-11T00:20:23.680Z,76.93
2023-02-11T00:22:50.818Z,77.14
2023-02-11T00:25:18.203Z,77.12
2023-02-11T00:27:45.328Z,77.54
2023-02-11T00:30:13.371Z,77.42
2023-02-11T00:32:42.642Z,77.64
2023-02-11T00:35:09.812Z,77.42
2023-02-11T00:37:37.047Z,77.43
2023-02-11T00:40:06.807Z,77.73
2023-02-11T00:42:35.708Z,77.78
2023-02-11T00:45:03.720Z,77.61
2023-02-11T00:47:31.121Z,77.31
2023-02-11T00:49:58.294Z,77.58
2023-02-11T00:52:27.651Z,76.93
2023-02-11T00:54:55.072Z,77.01
2023-02-11T00:57:22.536Z,76.64
2023-02-11T00:59:50.681Z,76.69
2023-02-11T01:02:19.078Z,76.87
2023-02-11T01:04:46.210Z,77.20
2023-02-11T01:07:13.336Z,77.39
2023-02-11T01:09:40.780Z,77.28
2023-02-11T01:12:07.911Z,77.26
2023-02-11T01:14:35.139Z,76.75
2023-02-11T01:17:05.609Z,76.72
2023-02-11T01:19:32.732Z,77.57
2023-02-11T01:21:59.943Z,77.96
2023-02-11T01:24:27.521Z,78.28
2023-02-11T01:26:54.781Z,78.94
2023-02-11T01:29:24.487Z,79.36
2023-02-11T01:31:54.867Z,79.96
2023-02-11T01:34:22.001Z,80.38
2023-02-11T01:36:50.194Z,80.50
2023-02-11T01:39:17.575Z,80.43
2023-02-11T01:41:46.624Z,80.96
2023-02-11T01:44:42.808Z,81.37
2023-02-11T01:47:10.847Z,81.98
2023-02-11T01:49:41.290Z,81.92
2023-02-11T01:52:23.522Z,81.77
2023-02-11T01:55:15.969Z,81.71
2023-02-11T01:57:47.738Z,81.99
2023-02-11T02:00:22.512Z,82.26
2023-02-11T02:02:56.345Z,83.11
2023-02-11T02:05:42.443Z,81.99
2023-02-11T02:08:31.018Z,82.09
2023-02-11T02:11:00.938Z,82.83
2023-02-11T02:13:31.382Z,83.36
2023-02-11T02:16:13.802Z,83.80
2023-02-11T02:19:10.422Z,84.32
2023-02-11T02:22:05.778Z,84.48
2023-02-11T02:25:07.049Z,84.72
2023-02-11T02:28:03.833Z,84.81
2023-02-11T02:30:33.994Z,84.81
2023-02-11T02:33:23.315Z,85.03
2023-02-11T02:36:37.138Z,84.79
2023-02-11T02:39:18.253Z,84.56
2023-02-11T02:41:46.821Z,84.32
2023-02-11T02:44:14.273Z,84.34
2023-02-11T02:46:41.463Z,84.25
2023-02-11T02:49:16.465Z,83.91
2023-02-11T02:52:06.033Z,84.37
2023-02-11T02:54:56.049Z,85.02
2023-02-11T02:57:29.780Z,85.05
2023-02-11T02:59:59.467Z,84.81
2023-02-11T03:03:04.074Z,85.12
2023-02-11T03:05:53.078Z,85.35
2023-02-11T03:08:41.486Z,85.44
2023-02-11T03:11:11.036Z,85.35
2023-02-11T03:13:40.035Z,84.50
2023-02-11T03:16:12.279Z,85.18
2023-02-11T03:18:44.598Z,85.78
2023-02-11T03:21:14.135Z,86.05
2023-02-11T03:23:56.398Z,85.95
2023-02-11T03:26:30.292Z,86.06
2023-02-11T03:29:26.246Z,85.93
2023-02-11T03:32:06.927Z,85.71
2023-02-11T03:34:44.108Z,85.37
2023-02-11T03:37:32.355Z,85.42
2023-02-11T03:40:15.941Z,86.10
2023-02-11T03:42:48.820Z,86.44
2023-02-11T03:45:20.060Z,86.46
2023-02-11T03:47:53.435Z,86.48
2023-02-11T03:50:22.155Z,85.99
2023-02-11T03:52:50.184Z,85.25
2023-02-11T03:55:19.505Z,84.27
2023-02-11T03:57:47.897Z,83.74
2023-02-11T04:00:15.295Z,83.43
2023-02-11T04:02:44.401Z,83.00
2023-02-11T04:05:15.015Z,82.54
2023-02-11T04:07:42.476Z,82.38
2023-02-11T04:10:11.703Z,81.03
2023-02-11T04:12:38.841Z,80.47
2023-02-11T04:15:06.895Z,79.34
2023-02-11T04:17:34.060Z,79.61
2023-02-11T04:20:01.227Z,79.00
2023-02-11T04:22:28.544Z,78.70
2023-02-11T04:24:55.673Z,78.60
2023-02-11T04:27:23.067Z,78.09
2023-02-11T04:29:50.476Z,78.23
2023-02-11T04:32:17.552Z,77.72
2023-02-11T04:34:44.647Z,77.45
2023-02-11T04:37:12.177Z,77.09
2023-02-11T04:39:39.316Z,77.08
2023-02-11T04:42:06.909Z,76.32
2023-02-11T04:44:34.526Z,75.85
2023-02-11T04:47:01.596Z,75.73
2023-02-11T04:49:28.824Z,75.34
2023-02-11T04:51:56.267Z,75.45
2023-02-11T04:54:23.412Z,75.60
2023-02-11T04:56:51.183Z,75.40
2023-02-11T04:59:18.712Z,75.64
2023-02-11T05:01:45.859Z,75.94
2023-02-11T05:04:13.038Z,74.75
2023-02-11T05:06:40.593Z,74.89
2023-02-11T05:09:07.838Z,74.76
2023-02-11T05:11:36.637Z,74.93
2023-02-11T05:14:04.081Z,75.19
2023-02-11T05:16:31.511Z,75.58
2023-02-11T05:18:58.877Z,75.85
2023-02-11T05:21:26.391Z,76.36
2023-02-11T05:23:53.457Z,76.66
2023-02-11T05:26:20.743Z,76.78
2023-02-11T05:28:48.241Z,76.85
2023-02-11T05:31:16.738Z,77.05
2023-02-11T05:33:43.983Z,77.19
2023-02-11T05:36:13.409Z,77.41
2023-02-11T05:38:42.469Z,77.62
2023-02-11T05:41:10.438Z,77.90
2023-02-11T05:43:37.905Z,78.16
2023-02-11T05:46:05.320Z,79.00
2023-02-11T05:48:32.830Z,79.44
2023-02-11T05:51:00.409Z,79.90
2023-02-11T05:53:27.502Z,80.04
2023-02-11T05:55:54.638Z,80.42
2023-02-11T05:58:22.029Z,81.12
2023-02-11T06:00:49.133Z,81.33
2023-02-11T06:03:16.638Z,81.20
2023-02-11T06:05:45.232Z,81.13
2023-02-11T06:08:12.459Z,81.42
2023-02-11T06:10:42.466Z,81.54
2023-02-11T06:13:09.554Z,81.42
2023-02-11T06:15:36.647Z,81.25
2023-02-11T06:18:04.347Z,80.84
2023-02-11T06:20:31.779Z,80.50
2023-02-11T06:22:58.873Z,79.91
2023-02-11T06:25:26.320Z,79.82
2023-02-11T06:27:53.455Z,79.03
2023-02-11T06:30:20.758Z,78.22
2023-02-11T06:32:48.253Z,77.07
2023-02-11T06:35:15.436Z,76.25
2023-02-11T06:37:43.056Z,75.34
2023-02-11T06:40:11.971Z,74.23
2023-02-11T06:42:39.580Z,73.37
2023-02-11T06:45:09.473Z,71.01
2023-02-11T06:47:37.461Z,69.50
2023-02-11T06:50:05.039Z,67.91
2023-02-11T06:52:32.945Z,67.34
2023-02-11T06:55:00.414Z,66.92
2023-02-11T06:57:27.492Z,66.31
2023-02-11T06:59:55.634Z,66.46
2023-02-11T07:02:23.133Z,65.67
2023-02-11T07:04:50.387Z,65.17
2023-02-11T07:07:17.457Z,64.81
2023-02-11T07:09:44.899Z,64.58
2023-02-11T07:12:12.046Z,64.77
2023-02-11T07:14:39.467Z,65.06
2023-02-11T07:17:06.860Z,65.42
2023-02-11T07:19:33.944Z,64.92
2023-02-11T07:22:01.050Z,64.85
2023-02-11T07:24:28.564Z,65.36
2023-02-11T07:26:55.655Z,65.17
2023-02-11T07:29:22.785Z,64.53
2023-02-11T07:31:50.454Z,64.06
2023-02-11T07:34:17.694Z,63.87
2023-02-11T07:36:45.238Z,64.01
2023-02-11T07:39:12.858Z,63.11
2023-02-11T07:41:40.060Z,61.85
2023-02-11T07:44:07.542Z,62.34
2023-02-11T07:46:35.833Z,61.55
2023-02-11T07:49:03.683Z,61.00
2023-02-11T07:51:31.509Z,61.28
2023-02-11T07:54:00.427Z,61.84
2023-02-11T07:56:28.778Z,60.90
2023-02-11T07:58:59.678Z,60.91
2023-02-11T08:01:28.688Z,60.45
2023-02-11T08:03:58.553Z,60.09
2023-02-11T08:06:27.734Z,60.29
2023-02-11T08:08:55.162Z,60.59
2023-02-11T08:11:27.597Z,60.45
2023-02-11T08:13:56.113Z,60.01
2023-02-11T08:16:28.926Z,59.99
2023-02-11T08:18:58.175Z,59.85
2023-02-11T08:21:25.818Z,59.55
2023-02-11T08:23:53.407Z,58.74
2023-02-11T08:26:23.408Z,59.44
2023-02-11T08:28:52.390Z,59.60
2023-02-11T08:31:33.278Z,60.50
2023-02-11T08:34:02.338Z,60.17
2023-02-11T08:36:34.789Z,59.99
2023-02-11T08:39:22.490Z,60.13
2023-02-11T08:41:53.245Z,60.75
2023-02-11T08:44:21.543Z,60.44
2023-02-11T08:46:49.073Z,60.34
2023-02-11T08:49:16.401Z,60.71
2023-02-11T08:51:44.788Z,60.34
2023-02-11T08:54:12.234Z,60.45
2023-02-11T08:56:39.432Z,60.13
2023-02-11T08:59:07.742Z,60.44
2023-02-11T09:01:35.314Z,60.64
2023-02-11T09:04:02.394Z,58.54
2023-02-11T09:06:30.357Z,58.65
2023-02-11T09:08:58.045Z,58.76
2023-02-11T09:11:28.595Z,59.16
2023-02-11T09:13:56.084Z,59.01
2023-02-11T09:16:28.412Z,59.78
2023-02-11T09:18:59.919Z,58.95
2023-02-11T09:21:28.462Z,60.04
2023-02-11T09:23:56.887Z,59.94
2023-02-11T09:26:27.134Z,59.75
2023-02-11T09:28:54.760Z,60.61
2023-02-11T09:31:24.810Z,58.76
2023-02-11T09:33:54.772Z,58.00
2023-02-11T09:36:25.354Z,57.09
2023-02-11T09:38:53.147Z,57.57
2023-02-11T09:41:23.119Z,56.44
2023-02-11T09:43:57.250Z,57.15
2023-02-11T09:46:25.880Z,56.98
2023-02-11T09:48:55.489Z,57.76
2023-02-11T09:51:49.669Z,57.91
2023-02-11T09:54:35.878Z,58.48
2023-02-11T09:57:03.248Z,58.53
2023-02-11T09:59:30.642Z,58.86
2023-02-11T10:02:14.362Z,59.28
2023-02-11T10:05:12.657Z,59.54
2023-02-11T10:07:59.058Z,58.84
2023-02-11T10:10:51.995Z,58.70
2023-02-11T10:13:42.639Z,58.21
2023-02-11T10:16:39.486Z,58.07
2023-02-11T10:19:15.622Z,58.76
2023-02-11T10:21:55.312Z,60.44
2023-02-11T10:24:22.404Z,60.62
2023-02-11T10:26:51.908Z,61.09
2023-02-11T10:29:33.854Z,60.42
2023-02-11T10:32:07.103Z,60.15
2023-02-11T10:34:39.742Z,61.04
2023-02-11T10:37:07.640Z,62.30
2023-02-11T10:39:34.743Z,61.60
2023-02-11T10:42:13.179Z,61.21
2023-02-11T10:44:56.874Z,60.62
2023-02-11T10:47:28.064Z,60.39
2023-02-11T10:50:03.168Z,60.73
2023-02-11T10:52:31.255Z,60.36
2023-02-11T10:55:00.516Z,60.38
2023-02-11T10:57:58.562Z,58.97
2023-02-11T11:00:42.957Z,57.74
2023-02-11T11:03:25.365Z,56.72
2023-02-11T11:05:58.453Z,54.29
2023-02-11T11:08:39.669Z,52.64
2023-02-11T11:11:10.247Z,52.14
2023-02-11T11:13:53.814Z,51.77
2023-02-11T11:16:26.075Z,52.69
2023-02-11T11:19:14.276Z,52.18
2023-02-11T11:21:47.404Z,52.00
2023-02-11T11:24:31.463Z,52.37
2023-02-11T11:27:01.729Z,52.56
2023-02-11T11:29:34.419Z,52.97
2023-02-11T11:32:22.019Z,51.81
2023-02-11T11:34:55.682Z,51.54
2023-02-11T11:37:27.675Z,51.20
2023-02-11T11:40:11.596Z,50.43
2023-02-11T11:42:40.429Z,51.17
2023-02-11T11:45:19.523Z,50.32
2023-02-11T11:48:15.313Z,49.53
2023-02-11T11:50:52.405Z,47.71
2023-02-11T11:53:37.992Z,47.39
2023-02-11T11:56:22.047Z,47.10
2023-02-11T11:58:50.370Z,47.62
2023-02-11T12:01:29.440Z,48.79
2023-02-11T12:04:02.905Z,47.80
2023-02-11T12:07:07.741Z,49.32
2023-02-11T12:09:59.425Z,48.49
2023-02-11T12:12:54.070Z,47.33
2023-02-11T12:15:32.902Z,47.20
2023-02-11T12:18:19.435Z,47.61
2023-02-11T12:21:08.302Z,47.48
2023-02-11T12:23:44.560Z,47.65
2023-02-11T12:26:20.385Z,47.66
2023-02-11T12:29:14.078Z,47.83
2023-02-11T12:32:32.122Z,47.02
2023-02-11T12:35:11.427Z,47.33
2023-02-11T12:38:18.730Z,48.68
2023-02-11T12:40:46.907Z,48.93
2023-02-11T12:43:16.935Z,47.97
2023-02-11T12:45:56.312Z,47.54
2023-02-11T12:48:51.850Z,47.42
2023-02-11T12:51:46.106Z,45.82
2023-02-11T12:54:35.143Z,46.17
2023-02-11T12:57:14.737Z,45.15
2023-02-11T13:00:08.258Z,43.07
2023-02-11T13:02:47.253Z,43.62
2023-02-11T13:05:55.193Z,43.56
2023-02-11T13:08:32.374Z,42.92
2023-02-11T13:11:08.053Z,42.88
2023-02-11T13:14:06.212Z,42.88
2023-02-11T13:16:45.407Z,42.11
2023-02-11T13:19:30.720Z,41.56
2023-02-11T13:22:13.020Z,40.97
2023-02-11T13:25:06.559Z,41.19
2023-02-11T13:27:44.246Z,41.51
2023-02-11T13:30:33.407Z,41.17
2023-02-11T13:33:01.022Z,41.68
2023-02-11T13:35:32.210Z,44.57
2023-02-11T13:38:01.996Z,43.75
2023-02-11T13:40:36.623Z,43.05
2023-02-11T13:43:06.507Z,41.89
2023-02-11T13:45:45.592Z,41.98
2023-02-11T13:48:30.408Z,40.78
2023-02-11T13:51:04.926Z,41.64
2023-02-11T13:53:47.574Z,41.37
2023-02-11T13:56:30.221Z,40.89
2023-02-11T13:59:01.758Z,42.21
2023-02-11T14:01:39.770Z,42.02
2023-02-11T14:04:55.114Z,42.41
2023-02-11T14:07:51.832Z,41.92
2023-02-11T14:10:49.875Z,41.13
2023-02-11T14:13:49.384Z,40.54
2023-02-11T14:16:35.599Z,41.78
2023-02-11T14:19:04.409Z,42.53
2023-02-11T14:21:38.400Z,42.50
2023-02-11T14:24:07.889Z,41.64
2023-02-11T14:26:53.611Z,42.87
2023-02-11T14:29:34.590Z,43.00
2023-02-11T14:32:40.994Z,43.59
2023-02-11T14:35:40.703Z,43.21
2023-02-11T14:38:40.093Z,43.67
2023-02-11T14:41:27.536Z,43.54
2023-02-11T14:43:59.223Z,43.39
2023-02-11T14:46:29.927Z,44.61
2023-02-11T14:49:01.280Z,44.39
2023-02-11T14:51:31.859Z,44.28
2023-02-11T14:54:13.454Z,43.98
2023-02-11T14:56:42.271Z,44.29
2023-02-11T14:59:17.521Z,45.08
2023-02-11T15:01:49.505Z,45.17
2023-02-11T15:04:28.073Z,45.45
2023-02-11T15:06:57.506Z,45.28
2023-02-11T15:09:44.194Z,45.63
2023-02-11T15:12:29.313Z,46.09
2023-02-11T15:15:00.522Z,45.93
2023-02-11T15:17:31.783Z,46.59
2023-02-11T15:20:01.898Z,46.85
2023-02-11T15:22:37.390Z,47.72
2023-02-11T15:25:07.883Z,47.59
2023-02-11T15:27:43.979Z,48.34
2023-02-11T15:30:23.416Z,48.20
2023-02-11T15:33:00.022Z,48.97
2023-02-11T15:35:36.723Z,49.09
2023-02-11T15:38:04.989Z,48.51
2023-02-11T15:40:34.733Z,49.04
2023-02-11T15:43:07.655Z,48.95
2023-02-11T15:45:42.459Z,49.01
2023-02-11T15:48:23.903Z,49.46
2023-02-11T15:50:55.161Z,49.42
2023-02-11T15:53:30.200Z,50.39
2023-02-11T15:56:04.970Z,50.67
2023-02-11T15:58:37.862Z,51.29
2023-02-11T16:01:06.752Z,51.43
2023-02-11T16:03:34.613Z,51.58
2023-02-11T16:06:27.995Z,51.65
2023-02-11T16:09:23.807Z,51.95
2023-02-11T16:11:50.776Z,52.71
2023-02-11T16:14:36.937Z,52.79
2023-02-11T16:17:22.346Z,52.72
2023-02-11T16:19:52.295Z,52.78
2023-02-11T16:22:24.708Z,52.57
2023-02-11T16:24:54.803Z,52.90
2023-02-11T16:27:34.922Z,52.98
2023-02-11T16:30:02.668Z,53.59
2023-02-11T16:32:30.299Z,53.82
2023-02-11T16:35:00.713Z,53.83
2023-02-11T16:37:28.249Z,54.04
2023-02-11T16:39:56.750Z,54.35
2023-02-11T16:42:24.445Z,54.73
2023-02-11T16:44:51.826Z,54.95
2023-02-11T16:47:27.608Z,54.79
2023-02-11T16:49:56.256Z,53.93
2023-02-11T16:52:23.686Z,53.72
2023-02-11T16:54:50.935Z,53.60
2023-02-11T16:57:24.246Z,53.70
2023-02-11T16:59:52.309Z,53.94
2023-02-11T17:02:39.898Z,54.12
2023-02-11T17:05:12.133Z,54.12
2023-02-11T17:07:39.464Z,53.92
2023-02-11T17:10:17.918Z,54.08
2023-02-11T17:12:45.226Z,53.17
2023-02-11T17:15:12.272Z,53.08
2023-02-11T17:17:39.290Z,53.61
2023-02-11T17:20:08.628Z,53.66
2023-02-11T17:22:35.650Z,54.12
2023-02-11T17:25:02.639Z,53.99
2023-02-11T17:27:30.006Z,55.71
2023-02-11T17:29:57.114Z,57.35
2023-02-11T17:32:24.211Z,58.29
2023-02-11T17:34:53.076Z,59.59
2023-02-11T17:37:20.155Z,60.02
2023-02-11T17:39:49.062Z,60.47
2023-02-11T17:42:16.549Z,60.59
2023-02-11T17:44:44.425Z,60.71
2023-02-11T17:47:12.772Z,60.69
2023-02-11T17:49:40.687Z,60.01
2023-02-11T17:52:07.820Z,58.87
2023-02-11T17:54:35.012Z,57.65
2023-02-11T17:57:02.520Z,56.46
2023-02-11T17:59:35.296Z,56.17
2023-02-11T18:02:04.262Z,55.93
2023-02-11T18:04:32.779Z,55.84
2023-02-11T18:06:59.874Z,56.53
2023-02-11T18:09:26.989Z,56.57
2023-02-11T18:11:54.403Z,57.56
2023-02-11T18:14:22.953Z,58.33
2023-02-11T18:16:52.254Z,57.66
2023-02-11T18:19:20.199Z,57.76
2023-02-11T18:21:50.200Z,57.92
2023-02-11T18:24:17.506Z,58.54
2023-02-11T18:26:44.818Z,58.38
2023-02-11T18:29:11.882Z,58.08
2023-02-11T18:31:39.577Z,57.89
2023-02-11T18:34:08.401Z,58.70
2023-02-11T18:36:35.927Z,58.62
2023-02-11T18:39:05.020Z,58.69
2023-02-11T18:41:32.651Z,59.29
2023-02-11T18:44:02.901Z,59.47
2023-02-11T18:46:31.225Z,59.54
2023-02-11T18:48:58.620Z,59.49
2023-02-11T18:51:26.021Z,60.00
2023-02-11T18:53:53.248Z,60.12
2023-02-11T18:56:24.571Z,60.54
2023-02-11T18:58:52.120Z,60.45
2023-02-11T19:01:21.305Z,60.96
2023-02-11T19:03:48.778Z,60.67
2023-02-11T19:06:24.954Z,60.71
2023-02-11T19:08:59.700Z,61.00
2023-02-11T19:11:49.055Z,60.68
2023-02-11T19:14:19.847Z,61.10
2023-02-11T19:16:47.909Z,61.08
2023-02-11T19:19:15.082Z,60.68
2023-02-11T19:21:44.462Z,60.69
2023-02-11T19:24:13.281Z,60.88
2023-02-11T19:26:40.405Z,60.18
2023-02-11T19:29:08.397Z,60.12
2023-02-11T19:31:35.723Z,60.44
2023-02-11T19:34:03.893Z,60.85
2023-02-11T19:36:31.372Z,60.26
2023-02-11T19:39:02.112Z,60.03
2023-02-11T19:41:30.196Z,60.00
2023-02-11T19:43:57.854Z,60.12
2023-02-11T19:46:26.697Z,61.19
2023-02-11T19:48:54.200Z,60.66
2023-02-11T19:51:22.285Z,61.57
2023-02-11T19:53:49.411Z,61.67
2023-02-11T19:56:19.761Z,61.40
2023-02-11T19:58:48.148Z,61.72
2023-02-11T20:01:18.921Z,61.81
2023-02-11T20:03:52.575Z,62.20
2023-02-11T20:06:24.935Z,62.69
2023-02-11T20:08:58.581Z,62.57
2023-02-11T20:11:28.021Z,62.74
2023-02-11T20:13:56.015Z,62.63
2023-02-11T20:16:37.118Z,63.37
2023-02-11T20:19:17.621Z,63.12
2023-02-11T20:21:47.396Z,64.23
2023-02-11T20:24:18.877Z,64.39
2023-02-11T20:26:48.350Z,64.89
2023-02-11T20:29:17.865Z,64.86
2023-02-11T20:31:45.452Z,64.77
2023-02-11T20:34:12.926Z,65.04
2023-02-11T20:36:40.900Z,65.43
2023-02-11T20:39:08.237Z,66.11
2023-02-11T20:41:39.841Z,65.89
2023-02-11T20:44:10.205Z,65.94
2023-02-11T20:46:40.144Z,66.15
2023-02-11T20:49:09.782Z,66.25
2023-02-11T20:51:37.468Z,66.07
2023-02-11T20:54:06.310Z,66.47
2023-02-11T20:56:36.628Z,66.54
2023-02-11T20:59:04.671Z,66.66
2023-02-11T21:01:33.474Z,67.16
2023-02-11T21:04:04.018Z,67.79
2023-02-11T21:06:35.789Z,68.12
2023-02-11T21:09:05.350Z,68.29
2023-02-11T21:11:32.587Z,68.82
2023-02-11T21:14:01.908Z,68.99
2023-02-11T21:16:29.478Z,69.07
2023-02-11T21:18:56.884Z,69.61
2023-02-11T21:21:24.345Z,69.60
2023-02-11T21:23:52.203Z,69.86
2023-02-11T21:26:19.332Z,69.91
2023-02-11T21:28:46.543Z,70.07
2023-02-11T21:31:26.033Z,70.86
2023-02-11T21:33:55.146Z,71.67
2023-02-11T21:36:23.983Z,71.79
2023-02-11T21:38:51.332Z,72.08
2023-02-11T21:41:21.822Z,72.31
2023-02-11T21:43:50.025Z,72.76
2023-02-11T21:46:18.009Z,73.52
2023-02-11T21:48:45.284Z,74.25
2023-02-11T21:51:19.374Z,74.70
2023-02-11T21:53:47.241Z,74.67
2023-02-11T21:56:17.723Z,75.22
2023-02-11T21:58:46.218Z,75.89
2023-02-11T22:01:19.369Z,76.15
2023-02-11T22:03:47.300Z,76.81
2023-02-11T22:06:26.059Z,76.72
2023-02-11T22:08:54.861Z,77.52
2023-02-11T22:11:22.185Z,77.90
2023-02-11T22:13:56.498Z,78.75
2023-02-11T22:16:24.293Z,79.45
2023-02-11T22:18:51.957Z,80.21
2023-02-11T22:21:22.735Z,81.30
2023-02-11T22:23:51.350Z,81.68
2023-02-11T22:26:21.773Z,82.12
2023-02-11T22:28:49.865Z,82.91
2023-02-11T22:31:19.922Z,82.98
2023-02-11T22:33:47.195Z,83.93
2023-02-11T22:36:23.182Z,84.47
2023-02-11T22:38:50.663Z,84.87
2023-02-11T22:41:19.053Z,85.20
2023-02-11T22:43:46.668Z,85.58
2023-02-11T22:46:17.454Z,85.91
2023-02-11T22:48:45.130Z,86.53
2023-02-11T22:51:16.188Z,86.68
2023-02-11T22:53:46.523Z,87.32
2023-02-11T22:56:15.655Z,87.14
2023-02-11T22:58:43.701Z,87.57
2023-02-11T23:01:12.752Z,87.93
2023-02-11T23:03:40.286Z,88.51
2023-02-11T23:06:08.134Z,88.88
2023-02-11T23:08:35.498Z,89.37
2023-02-11T23:11:25.529Z,90.24
2023-02-11T23:13:54.610Z,90.30
2023-02-11T23:16:25.716Z,90.18
2023-02-11T23:18:54.229Z,90.35
2023-02-11T23:21:23.129Z,90.02
2023-02-11T23:23:58.032Z,90.48
2023-02-11T23:26:26.290Z,90.94
2023-02-11T23:28:53.495Z,91.49
2023-02-11T23:31:28.052Z,92.05
2023-02-11T23:33:55.493Z,92.22
2023-02-11T23:36:23.302Z,92.47
2023-02-11T23:38:50.442Z,93.02
2023-02-11T23:41:18.075Z,93.33
2023-02-11T23:43:49.284Z,93.19
2023-02-11T23:46:16.364Z,92.75
2023-02-11T23:48:43.756Z,92.92
2023-02-11T23:51:11.052Z,93.11
2023-02-11T23:53:39.088Z,92.99
2023-02-11T23:56:11.407Z,93.11
2023-02-11T23:58:38.484Z,92.89
